Hauptseite
METAR-TAF:

METAR-TAF

Flughäfen :

Militärflugplatz Piacenza

Piacenza, Italien

Breite: 44-55N, Länge: 009-44E, Höhe: 134 m

Beobachtung

Neuester Wetterbericht von vor 7 Stunden und 58 Minuten, um 17:55 UTC
Wind 7 kt aus Nord
Temperatur 20°C
Luftfeuchtigkeit 100%
Luftdruck 1009 hPa
Sichtweite 10 km oder mehr
Leicht bewölkt in der Höhe von 3000 ft

METAR: LIMS 161755Z 01007KT 9999 FEW030 20/20 Q1009 RMK BKN SCT090 VIS MIN 9999 WIND THR30 03004KT BLU

Zeit: 03:53 (01:53 UTC)


TAF: fehlend

Wetterbeobachtungen und Prognosen von mehr als 4000 Flughäfen (METAR und TAF Bericht).

Die verfügbaren Stationen werden durch gelbe und rote Markierungen auf der Karte dargestellt.

Führen Sie die Maus auf sie, um den Namen der Station zu sehen.

Darauf klicken, um die Beobachtung von Wetterbeobachtungen und Prognosen zu sehen.

Um die Karte zu ändern : klicken Sie auf den grünen Tasten mit einem schwarzen Kreuz Zum Vergrößern, auf den grünen Button mit einem Gedankenstrich zu verkleinern, oder auf die grünen Pfeile für benachbarte Karten.


METAR-TAF: